Time;durP1;ratioP1;P1;durP2;ratioP2;P2;SDS_P1;SDS_P2;PMS_P1;PMS_P2;Temp;Humidity;BMP_temperature;BMP_pressure;BME280_temperature;BME280_humidity;BME280_pressure;Samples;Min_cycle;Max_cycle;Signal;HPM_P1;HPM_P2
2022/07/25 00:03:57;;;;;;;11.55;7.63;;;;;;;;;;10057740;28;20067;-66
2022/07/25 00:08:53;;;;;;;9.93;6.93;;;;;;;;;;10076296;28;20398;-66
2022/07/25 00:13:49;;;;;;;8.65;6.15;;;;;;;;;;10052894;28;20569;-66
2022/07/25 00:18:45;;;;;;;9.05;5.10;;;;;;;;;;10069677;28;20072;-66
2022/07/25 00:23:42;;;;;;;10.32;5.38;;;;;;;;;;10041865;28;20508;-66
2022/07/25 00:28:38;;;;;;;7.95;5.35;;;;;;;;;;10067591;28;20458;-66
2022/07/25 00:33:34;;;;;;;8.23;5.40;;;;;;;;;;10039725;28;20039;-65
2022/07/25 00:38:31;;;;;;;8.68;5.05;;;;;;;;;;10063011;28;20047;-66
2022/07/25 00:43:27;;;;;;;7.85;5.32;;;;;;;;;;10036454;28;20127;-65
2022/07/25 00:48:24;;;;;;;6.95;5.40;;;;;;;;;;10037030;28;20126;-66
2022/07/25 00:53:21;;;;;;;7.15;4.45;;;;;;;;;;10038279;28;20097;-66
2022/07/25 00:58:17;;;;;;;9.00;5.50;;;;;;;;;;10054893;28;20075;-66
2022/07/25 01:08:20;;;;;;;6.72;5.43;;;;;;;;;;10536728;23;20075;-68
2022/07/25 01:13:16;;;;;;;6.95;4.72;;;;;;;;;;10074233;28;20468;-68
2022/07/25 01:18:12;;;;;;;8.95;5.45;;;;;;;;;;10073313;28;20497;-68
2022/07/25 01:23:09;;;;;;;7.18;5.25;;;;;;;;;;10067070;28;20494;-67
2022/07/25 01:28:05;;;;;;;8.93;5.63;;;;;;;;;;10074199;28;20410;-68
2022/07/25 01:33:01;;;;;;;7.35;5.32;;;;;;;;;;10052893;28;20513;-68
2022/07/25 01:38:03;;;;;;;7.85;5.28;;;;;;;;;;10036087;28;20052;-68
2022/07/25 01:42:59;;;;;;;9.57;4.70;;;;;;;;;;10074065;28;20106;-68
2022/07/25 01:47:56;;;;;;;9.10;5.55;;;;;;;;;;10071781;28;20047;-68
2022/07/25 01:52:52;;;;;;;6.95;5.05;;;;;;;;;;10042868;28;20067;-68
2022/07/25 01:57:48;;;;;;;7.75;5.28;;;;;;;;;;10061074;28;20579;-68
2022/07/25 02:02:45;;;;;;;10.80;5.57;;;;;;;;;;10042079;28;20058;-68
2022/07/25 02:07:42;;;;;;;6.40;4.90;;;;;;;;;;10051091;28;20044;-67
2022/07/25 02:12:38;;;;;;;8.25;5.10;;;;;;;;;;10042553;28;20127;-70
2022/07/25 02:17:34;;;;;;;5.70;4.63;;;;;;;;;;10077184;28;20058;-68
2022/07/25 02:22:31;;;;;;;7.65;4.88;;;;;;;;;;10062684;28;20115;-68
2022/07/25 02:27:27;;;;;;;8.98;5.18;;;;;;;;;;10075850;28;20457;-68
2022/07/25 02:32:23;;;;;;;6.80;4.45;;;;;;;;;;10057764;28;20143;-68
2022/07/25 02:37:20;;;;;;;5.65;4.40;;;;;;;;;;10074358;28;20429;-67
2022/07/25 02:42:16;;;;;;;6.22;4.85;;;;;;;;;;10043647;28;20048;-68
2022/07/25 02:47:12;;;;;;;6.68;4.80;;;;;;;;;;10067571;28;20075;-68
2022/07/25 02:52:08;;;;;;;6.95;4.32;;;;;;;;;;10040907;28;20051;-67
2022/07/25 02:57:05;;;;;;;6.38;4.38;;;;;;;;;;10061564;28;20047;-67
2022/07/25 03:02:01;;;;;;;7.32;4.50;;;;;;;;;;10039333;28;20105;-68
2022/07/25 03:06:57;;;;;;;8.07;4.03;;;;;;;;;;10043746;28;20048;-68
2022/07/25 03:11:54;;;;;;;6.53;3.85;;;;;;;;;;10040456;28;20071;-67
2022/07/25 03:16:50;;;;;;;7.40;3.65;;;;;;;;;;10046090;28;20126;-68
2022/07/25 03:21:46;;;;;;;7.15;3.83;;;;;;;;;;10039722;28;20102;-68
2022/07/25 03:26:43;;;;;;;6.05;4.18;;;;;;;;;;10068196;28;20138;-68
2022/07/25 03:31:39;;;;;;;7.00;3.78;;;;;;;;;;10058956;28;20099;-68
2022/07/25 03:36:35;;;;;;;6.90;3.55;;;;;;;;;;10066880;28;20047;-68
2022/07/25 03:41:31;;;;;;;7.30;3.90;;;;;;;;;;10050722;28;20581;-68
2022/07/25 03:46:28;;;;;;;5.45;4.05;;;;;;;;;;10064609;28;20047;-68
2022/07/25 03:51:24;;;;;;;6.75;4.25;;;;;;;;;;10076808;28;20066;-68
2022/07/25 03:56:21;;;;;;;5.80;3.80;;;;;;;;;;10076739;28;20071;-67
2022/07/25 04:01:17;;;;;;;5.68;3.58;;;;;;;;;;10038630;28;20102;-67
2022/07/25 04:06:14;;;;;;;6.32;4.18;;;;;;;;;;10059024;28;20094;-67
2022/07/25 04:11:10;;;;;;;7.53;3.45;;;;;;;;;;10037934;28;20044;-68
2022/07/25 04:16:07;;;;;;;4.28;3.78;;;;;;;;;;10044093;28;20778;-68
2022/07/25 04:21:09;;;;;;;5.40;3.97;;;;;;;;;;10037978;28;20505;-68
2022/07/25 04:26:06;;;;;;;8.20;4.15;;;;;;;;;;10060682;28;20513;-68
2022/07/25 04:31:02;;;;;;;5.78;3.90;;;;;;;;;;10074288;28;20074;-67
2022/07/25 04:35:59;;;;;;;5.45;3.47;;;;;;;;;;10059498;28;20051;-68
2022/07/25 04:40:55;;;;;;;8.73;3.70;;;;;;;;;;10075131;28;20101;-67
2022/07/25 04:45:51;;;;;;;4.88;3.60;;;;;;;;;;10074893;28;20051;-67
2022/07/25 04:50:48;;;;;;;5.97;4.03;;;;;;;;;;10058611;28;20509;-67
2022/07/25 04:55:44;;;;;;;5.07;3.63;;;;;;;;;;10057348;28;20126;-67
2022/07/25 05:00:40;;;;;;;6.18;3.63;;;;;;;;;;10054263;28;20099;-67
2022/07/25 05:05:37;;;;;;;4.35;3.70;;;;;;;;;;10055700;28;20413;-68
2022/07/25 05:10:33;;;;;;;6.70;3.70;;;;;;;;;;10051470;28;20501;-68
2022/07/25 05:15:29;;;;;;;5.50;4.30;;;;;;;;;;10054940;28;20090;-68
2022/07/25 05:20:26;;;;;;;6.18;3.58;;;;;;;;;;10044617;28;20055;-68
2022/07/25 05:25:24;;;;;;;6.00;4.03;;;;;;;;;;10054436;28;20143;-68
2022/07/25 05:30:20;;;;;;;6.10;3.75;;;;;;;;;;10044204;28;20051;-67
2022/07/25 05:35:16;;;;;;;6.65;4.30;;;;;;;;;;10047351;28;20082;-68
2022/07/25 05:40:13;;;;;;;5.00;4.00;;;;;;;;;;10043163;28;20051;-68
2022/07/25 05:45:09;;;;;;;5.85;4.82;;;;;;;;;;10046748;28;20052;-68
2022/07/25 05:50:06;;;;;;;7.40;4.63;;;;;;;;;;10042813;28;20044;-66
2022/07/25 05:55:03;;;;;;;4.45;3.58;;;;;;;;;;10058387;28;20135;-67
2022/07/25 05:59:59;;;;;;;6.90;4.32;;;;;;;;;;10081955;28;20596;-68
2022/07/25 06:04:55;;;;;;;9.57;4.22;;;;;;;;;;10080678;28;20047;-67
2022/07/25 06:09:52;;;;;;;5.47;4.30;;;;;;;;;;10069121;28;20521;-67
2022/07/25 06:14:48;;;;;;;6.63;4.15;;;;;;;;;;10055597;28;20453;-67
2022/07/25 06:19:45;;;;;;;7.00;4.30;;;;;;;;;;10059421;28;20054;-67
2022/07/25 06:24:41;;;;;;;9.80;4.15;;;;;;;;;;10053867;28;20047;-67
2022/07/25 06:29:38;;;;;;;4.93;4.25;;;;;;;;;;10047919;28;20482;-68
2022/07/25 06:34:34;;;;;;;8.90;4.28;;;;;;;;;;10047739;28;20549;-67
2022/07/25 06:39:30;;;;;;;7.63;4.30;;;;;;;;;;10040636;28;20078;-68
2022/07/25 06:44:27;;;;;;;6.97;4.07;;;;;;;;;;10051066;28;20126;-68
2022/07/25 06:49:23;;;;;;;5.53;4.40;;;;;;;;;;10079582;28;20067;-67
2022/07/25 06:54:19;;;;;;;7.63;4.40;;;;;;;;;;10064424;28;20075;-68
2022/07/25 06:59:16;;;;;;;4.80;4.20;;;;;;;;;;10040048;28;20097;-68
2022/07/25 07:04:12;;;;;;;5.50;4.18;;;;;;;;;;10063713;28;20051;-67
2022/07/25 07:09:08;;;;;;;5.68;4.47;;;;;;;;;;10078552;28;20071;-68
2022/07/25 07:14:05;;;;;;;6.47;4.60;;;;;;;;;;10055533;28;20160;-68
2022/07/25 07:19:02;;;;;;;9.07;5.00;;;;;;;;;;10069355;28;20052;-68
2022/07/25 07:23:58;;;;;;;8.85;4.78;;;;;;;;;;10046450;28;20069;-68
2022/07/25 07:28:55;;;;;;;6.95;4.72;;;;;;;;;;10062439;28;20047;-68
2022/07/25 07:33:51;;;;;;;7.13;5.28;;;;;;;;;;10045597;28;20682;-68
2022/07/25 07:38:47;;;;;;;6.03;4.57;;;;;;;;;;10047970;28;20119;-68
2022/07/25 07:43:44;;;;;;;7.90;4.60;;;;;;;;;;10043016;28;20564;-68
2022/07/25 07:48:40;;;;;;;8.10;6.15;;;;;;;;;;10040457;28;20048;-68
2022/07/25 07:58:51;;;;;;;7.90;5.13;;;;;;;;;;10037739;28;20082;-68
2022/07/25 08:03:48;;;;;;;6.57;5.30;;;;;;;;;;10039737;28;20075;-68
2022/07/25 08:08:44;;;;;;;9.65;4.95;;;;;;;;;;10036841;28;20071;-68
2022/07/25 08:13:41;;;;;;;7.82;5.47;;;;;;;;;;10057765;28;20141;-68
2022/07/25 08:18:37;;;;;;;6.82;5.50;;;;;;;;;;10075942;28;20505;-68
2022/07/25 08:23:34;;;;;;;7.78;5.47;;;;;;;;;;10041125;28;20090;-68
2022/07/25 08:28:30;;;;;;;6.35;5.68;;;;;;;;;;10065116;28;20163;-68
2022/07/25 08:33:27;;;;;;;7.97;5.25;;;;;;;;;;10040271;28;20109;-68
2022/07/25 08:38:24;;;;;;;9.35;6.38;;;;;;;;;;10047971;28;20825;-68
2022/07/25 08:43:21;;;;;;;7.13;6.18;;;;;;;;;;10038966;28;20618;-68
2022/07/25 08:48:21;;;;;;;8.57;6.90;;;;;;;;;;10041425;28;20079;-67
2022/07/25 08:53:19;;;;;;;7.80;7.00;;;;;;;;;;10038719;28;20573;-68
2022/07/25 08:58:31;;;;;;;8.18;6.93;;;;;;;;;;10074772;28;20054;-68
2022/07/25 09:03:27;;;;;;;11.52;6.75;;;;;;;;;;10047538;28;20489;-68
2022/07/25 09:08:24;;;;;;;7.15;6.45;;;;;;;;;;10068526;28;20044;-68
2022/07/25 09:13:21;;;;;;;7.63;6.85;;;;;;;;;;10038160;28;20074;-67
2022/07/25 09:18:20;;;;;;;11.57;6.95;;;;;;;;;;10067301;28;20080;-68
2022/07/25 09:23:26;;;;;;;8.02;7.15;;;;;;;;;;10037461;28;20151;-67
2022/07/25 09:28:22;;;;;;;7.57;6.78;;;;;;;;;;10050836;28;20056;-68
2022/07/25 09:33:18;;;;;;;10.10;7.90;;;;;;;;;;10037769;28;20071;-68
2022/07/25 09:38:15;;;;;;;8.95;6.68;;;;;;;;;;10036039;28;20095;-68
2022/07/25 09:43:11;;;;;;;8.52;7.72;;;;;;;;;;10036480;28;20060;-68
2022/07/25 09:48:07;;;;;;;10.65;7.68;;;;;;;;;;10036401;28;20509;-68
2022/07/25 09:53:04;;;;;;;8.00;7.25;;;;;;;;;;10035632;28;20051;-68
2022/07/25 09:58:00;;;;;;;10.43;7.22;;;;;;;;;;10073383;28;20143;-67
2022/07/25 10:03:17;;;;;;;9.38;8.40;;;;;;;;;;10063464;28;20043;-68
2022/07/25 10:08:13;;;;;;;9.05;8.13;;;;;;;;;;10075726;28;20070;-68
2022/07/25 10:13:14;;;;;;;8.73;7.93;;;;;;;;;;10069255;28;20048;-68
2022/07/25 10:18:11;;;;;;;10.23;8.27;;;;;;;;;;10080211;28;20055;-68
2022/07/25 10:23:19;;;;;;;11.23;7.88;;;;;;;;;;10058439;28;20063;-68
2022/07/25 10:28:17;;;;;;;10.70;7.80;;;;;;;;;;10080122;28;20083;-68
2022/07/25 10:33:16;;;;;;;10.52;8.20;;;;;;;;;;10079867;28;20051;-68
2022/07/25 10:38:12;;;;;;;9.23;8.32;;;;;;;;;;10079016;28;20074;-68
2022/07/25 10:43:12;;;;;;;9.27;8.13;;;;;;;;;;10042009;28;20094;-68
2022/07/25 10:48:09;;;;;;;9.07;8.23;;;;;;;;;;10075000;28;20052;-68
2022/07/25 10:53:08;;;;;;;8.68;7.93;;;;;;;;;;10041078;28;20043;-68
2022/07/25 10:58:05;;;;;;;9.30;8.32;;;;;;;;;;10071962;28;20510;-68
2022/07/25 11:03:17;;;;;;;8.90;8.13;;;;;;;;;;10042218;28;20098;-68
2022/07/25 11:08:14;;;;;;;8.68;7.88;;;;;;;;;;10067672;28;20044;-68
2022/07/25 11:13:18;;;;;;;9.02;8.02;;;;;;;;;;10041773;28;20060;-68
2022/07/25 11:18:14;;;;;;;8.23;7.43;;;;;;;;;;10065223;28;20135;-68
2022/07/25 11:23:10;;;;;;;9.02;8.23;;;;;;;;;;10039962;28;20079;-68
2022/07/25 11:28:07;;;;;;;9.77;8.88;;;;;;;;;;10064863;28;20083;-68
2022/07/25 11:33:03;;;;;;;8.95;8.15;;;;;;;;;;10039539;28;20086;-68
2022/07/25 11:38:01;;;;;;;8.80;7.97;;;;;;;;;;10054485;28;20417;-68
2022/07/25 11:42:58;;;;;;;8.25;7.45;;;;;;;;;;10039120;28;20477;-68
2022/07/25 11:48:03;;;;;;;8.80;7.50;;;;;;;;;;10054557;28;20051;-68
2022/07/25 11:53:01;;;;;;;8.75;7.95;;;;;;;;;;10038088;28;20079;-68
2022/07/25 11:57:58;;;;;;;8.23;7.63;;;;;;;;;;10054049;28;20086;-68
2022/07/25 12:03:05;;;;;;;8.88;8.07;;;;;;;;;;10038265;28;20071;-68
2022/07/25 12:08:21;;;;;;;8.45;7.68;;;;;;;;;;10042497;28;20521;-68
2022/07/25 12:13:21;;;;;;;9.02;8.23;;;;;;;;;;10040100;28;20060;-68
2022/07/25 12:18:17;;;;;;;8.60;7.77;;;;;;;;;;10076030;28;20568;-68
2022/07/25 12:23:14;;;;;;;8.32;7.63;;;;;;;;;;10044286;28;20071;-68
2022/07/25 12:28:10;;;;;;;9.25;8.30;;;;;;;;;;10075552;28;20082;-68
2022/07/25 12:33:07;;;;;;;8.13;7.32;;;;;;;;;;10040854;28;20079;-68
2022/07/25 12:38:03;;;;;;;8.40;7.57;;;;;;;;;;10068397;28;20568;-68
2022/07/25 12:43:00;;;;;;;15.45;8.05;;;;;;;;;;10037094;28;20047;-68
2022/07/25 12:47:56;;;;;;;8.95;8.15;;;;;;;;;;10051073;28;20051;-68
2022/07/25 12:52:52;;;;;;;8.98;8.18;;;;;;;;;;10036524;28;20285;-68
2022/07/25 12:57:49;;;;;;;8.40;7.60;;;;;;;;;;10039023;28;20047;-68
2022/07/25 13:02:46;;;;;;;9.00;8.20;;;;;;;;;;10035644;28;20070;-68
2022/07/25 13:07:42;;;;;;;8.52;7.72;;;;;;;;;;10047550;28;20050;-68
2022/07/25 13:12:38;;;;;;;8.55;7.82;;;;;;;;;;10034528;28;20426;-68
2022/07/25 13:17:36;;;;;;;9.05;8.15;;;;;;;;;;10071567;28;20102;-68
2022/07/25 13:22:32;;;;;;;9.00;8.02;;;;;;;;;;10066627;28;20047;-68
2022/07/25 13:27:28;;;;;;;8.82;7.93;;;;;;;;;;10070762;28;20079;-68
2022/07/25 13:32:27;;;;;;;8.77;7.95;;;;;;;;;;10064386;28;20044;-68
2022/07/25 13:37:23;;;;;;;8.98;8.15;;;;;;;;;;10069022;28;20095;-68
2022/07/25 13:42:19;;;;;;;9.10;8.20;;;;;;;;;;10048396;28;20047;-68
2022/07/25 13:47:16;;;;;;;10.80;8.48;;;;;;;;;;10087646;28;21241;-68
2022/07/25 13:52:12;;;;;;;9.32;8.50;;;;;;;;;;10043201;28;20474;-68
2022/07/25 13:57:08;;;;;;;8.80;7.85;;;;;;;;;;10063712;28;20059;-68
2022/07/25 14:02:04;;;;;;;9.57;7.97;;;;;;;;;;10042615;28;20090;-68
2022/07/25 14:07:01;;;;;;;9.13;8.27;;;;;;;;;;10046567;28;20044;-68
2022/07/25 14:11:57;;;;;;;9.27;7.28;;;;;;;;;;10043013;28;20055;-68
2022/07/25 14:16:54;;;;;;;8.75;7.85;;;;;;;;;;10080011;28;20140;-68
2022/07/25 14:21:50;;;;;;;10.07;9.18;;;;;;;;;;10065670;28;20561;-68
2022/07/25 14:26:48;;;;;;;11.80;9.48;;;;;;;;;;10070935;28;20122;-68
2022/07/25 14:31:44;;;;;;;12.82;9.90;;;;;;;;;;10052143;28;20106;-68
2022/07/25 14:36:41;;;;;;;11.55;10.35;;;;;;;;;;10069384;28;20090;-68
2022/07/25 14:41:37;;;;;;;14.35;11.60;;;;;;;;;;10043113;28;20063;-67
2022/07/25 14:46:34;;;;;;;14.38;9.20;;;;;;;;;;10058740;28;20568;-68
2022/07/25 14:51:31;;;;;;;14.50;10.05;;;;;;;;;;10040670;28;20134;-67
2022/07/25 14:56:28;;;;;;;11.35;10.15;;;;;;;;;;10049296;28;20075;-68
2022/07/25 15:01:24;;;;;;;10.27;8.57;;;;;;;;;;10040387;28;20085;-68
2022/07/25 15:06:21;;;;;;;9.00;7.45;;;;;;;;;;10066230;28;20047;-68
2022/07/25 15:11:24;;;;;;;11.30;6.72;;;;;;;;;;10067923;28;20130;-67
2022/07/25 15:16:20;;;;;;;11.50;7.80;;;;;;;;;;10065594;28;20078;-68
2022/07/25 15:21:17;;;;;;;9.55;6.70;;;;;;;;;;10060913;28;20229;-67
2022/07/25 15:26:13;;;;;;;9.82;6.13;;;;;;;;;;10063407;28;20609;-67
2022/07/25 15:31:09;;;;;;;9.15;5.60;;;;;;;;;;10041425;28;20043;-67
2022/07/25 15:36:06;;;;;;;8.27;5.32;;;;;;;;;;10053278;28;20131;-67
2022/07/25 15:41:02;;;;;;;9.07;5.35;;;;;;;;;;10038927;28;20130;-68
2022/07/25 15:45:59;;;;;;;8.35;4.80;;;;;;;;;;10041511;28;20051;-68
2022/07/25 15:50:57;;;;;;;9.27;5.13;;;;;;;;;;10039073;28;20040;-68
2022/07/25 15:55:53;;;;;;;12.93;4.65;;;;;;;;;;10061244;28;20050;-68
2022/07/25 16:00:50;;;;;;;10.80;4.80;;;;;;;;;;10077635;28;20070;-68
2022/07/25 16:05:46;;;;;;;12.55;5.45;;;;;;;;;;10068826;28;20043;-68
2022/07/25 16:10:42;;;;;;;11.27;4.95;;;;;;;;;;10072295;28;20140;-68
2022/07/25 16:15:39;;;;;;;8.70;4.75;;;;;;;;;;10056250;28;20043;-68
2022/07/25 16:20:35;;;;;;;10.65;5.25;;;;;;;;;;10074179;28;20054;-67
2022/07/25 16:25:31;;;;;;;10.68;5.07;;;;;;;;;;10073846;28;20071;-68
2022/07/25 16:30:28;;;;;;;8.73;5.38;;;;;;;;;;10048468;28;20071;-68
2022/07/25 16:35:24;;;;;;;11.77;5.47;;;;;;;;;;10050559;28;20078;-68
2022/07/25 16:40:20;;;;;;;14.18;4.75;;;;;;;;;;10035486;28;20087;-68
2022/07/25 16:45:21;;;;;;;12.43;5.63;;;;;;;;;;10053540;28;20050;-68
2022/07/25 16:50:17;;;;;;;11.10;5.50;;;;;;;;;;10074389;28;20078;-68
2022/07/25 16:55:13;;;;;;;10.95;5.25;;;;;;;;;;10052833;28;20055;-68
2022/07/25 17:00:10;;;;;;;13.90;4.78;;;;;;;;;;10066139;28;20047;-67
2022/07/25 17:05:07;;;;;;;12.18;4.57;;;;;;;;;;10013694;28;1074515;-67
2022/07/25 17:10:04;;;;;;;10.20;4.75;;;;;;;;;;10056771;28;20060;-67
2022/07/25 17:15:00;;;;;;;11.10;4.80;;;;;;;;;;10051913;29;20498;-67
2022/07/25 17:19:56;;;;;;;12.80;5.55;;;;;;;;;;10054535;28;20056;-67
2022/07/25 17:24:55;;;;;;;10.05;4.68;;;;;;;;;;10050144;28;20051;-67
2022/07/25 17:29:51;;;;;;;16.23;4.82;;;;;;;;;;10048975;28;20082;-67
2022/07/25 17:34:48;;;;;;;13.65;4.28;;;;;;;;;;10048590;28;20086;-67
2022/07/25 17:39:44;;;;;;;11.82;3.55;;;;;;;;;;10047164;28;20083;-67
2022/07/25 17:44:40;;;;;;;10.57;3.72;;;;;;;;;;10048173;28;20043;-67
2022/07/25 17:49:36;;;;;;;15.15;4.38;;;;;;;;;;10046075;28;20162;-67
2022/07/25 17:54:33;;;;;;;18.75;4.82;;;;;;;;;;10042119;28;20091;-67
2022/07/25 17:59:29;;;;;;;11.40;4.15;;;;;;;;;;10034888;28;20075;-66
2022/07/25 18:04:26;;;;;;;10.88;3.17;;;;;;;;;;10045836;28;20461;-66
2022/07/25 18:09:23;;;;;;;13.45;4.57;;;;;;;;;;10071733;28;20098;-67
2022/07/25 18:14:19;;;;;;;15.98;3.53;;;;;;;;;;10044321;28;20425;-66
2022/07/25 18:19:15;;;;;;;9.75;3.95;;;;;;;;;;10069093;28;20099;-67
2022/07/25 18:24:12;;;;;;;18.25;4.90;;;;;;;;;;10043430;28;20078;-67
2022/07/25 18:29:08;;;;;;;11.40;4.05;;;;;;;;;;10057050;28;20127;-68
2022/07/25 18:34:04;;;;;;;12.55;3.30;;;;;;;;;;10049628;28;20043;-68
2022/07/25 18:39:02;;;;;;;14.18;4.22;;;;;;;;;;10061443;28;20055;-67
2022/07/25 18:43:58;;;;;;;14.85;6.20;;;;;;;;;;10048079;28;20090;-68
2022/07/25 18:48:57;;;;;;;12.23;4.63;;;;;;;;;;10045105;28;20056;-67
2022/07/25 18:53:53;;;;;;;11.23;4.68;;;;;;;;;;10047569;28;20391;-68
2022/07/25 18:58:49;;;;;;;12.35;4.30;;;;;;;;;;10078932;28;20151;-67
2022/07/25 19:03:46;;;;;;;12.38;3.53;;;;;;;;;;10063551;28;20047;-67
2022/07/25 19:08:42;;;;;;;10.98;3.88;;;;;;;;;;10078656;28;20543;-67
2022/07/25 19:13:39;;;;;;;12.18;3.58;;;;;;;;;;10063342;28;20169;-68
2022/07/25 19:18:45;;;;;;;14.02;3.85;;;;;;;;;;10078405;28;20046;-68
2022/07/25 19:23:42;;;;;;;9.50;3.42;;;;;;;;;;10047429;28;20047;-67
2022/07/25 19:28:46;;;;;;;10.48;3.58;;;;;;;;;;10066822;28;20052;-67
2022/07/25 19:33:44;;;;;;;10.45;4.18;;;;;;;;;;10044095;28;20043;-68
2022/07/25 19:38:40;;;;;;;14.63;4.68;;;;;;;;;;10051705;28;20702;-67
2022/07/25 19:43:37;;;;;;;11.68;3.40;;;;;;;;;;10040551;28;20043;-67
2022/07/25 19:48:33;;;;;;;15.27;3.53;;;;;;;;;;10038332;28;20072;-67
2022/07/25 19:53:30;;;;;;;6.82;2.83;;;;;;;;;;10042811;28;20047;-68
2022/07/25 19:58:26;;;;;;;13.05;3.30;;;;;;;;;;10076757;28;20047;-67
2022/07/25 20:03:23;;;;;;;11.73;3.28;;;;;;;;;;10066183;28;20142;-68
2022/07/25 20:08:19;;;;;;;8.75;2.88;;;;;;;;;;10075888;28;20110;-68
2022/07/25 20:13:15;;;;;;;7.75;2.83;;;;;;;;;;10064340;28;20067;-67
2022/07/25 20:18:12;;;;;;;8.27;2.50;;;;;;;;;;10074839;28;20078;-67
2022/07/25 20:23:14;;;;;;;11.32;2.85;;;;;;;;;;10063644;28;20134;-68
2022/07/25 20:28:11;;;;;;;9.10;2.67;;;;;;;;;;10075673;28;20090;-68
2022/07/25 20:33:07;;;;;;;7.20;2.75;;;;;;;;;;10062040;28;20509;-68
2022/07/25 20:38:04;;;;;;;11.70;3.03;;;;;;;;;;10075379;28;20058;-68
2022/07/25 20:43:08;;;;;;;10.68;3.45;;;;;;;;;;10055558;28;20288;-68
2022/07/25 20:48:05;;;;;;;12.23;3.10;;;;;;;;;;10075294;28;20148;-68
2022/07/25 20:53:01;;;;;;;10.07;3.25;;;;;;;;;;10044499;28;20071;-68
2022/07/25 20:57:58;;;;;;;13.50;3.13;;;;;;;;;;10036607;28;20134;-68
2022/07/25 21:02:55;;;;;;;15.27;3.88;;;;;;;;;;10035681;28;20075;-68
2022/07/25 21:07:51;;;;;;;9.07;2.60;;;;;;;;;;10057773;28;20066;-68
2022/07/25 21:12:48;;;;;;;13.07;3.83;;;;;;;;;;10036325;28;20055;-68
2022/07/25 21:17:44;;;;;;;9.50;2.95;;;;;;;;;;10056634;28;20071;-68
2022/07/25 21:22:40;;;;;;;9.65;2.65;;;;;;;;;;10035558;28;20650;-68
2022/07/25 21:27:38;;;;;;;12.20;3.60;;;;;;;;;;10053943;28;20115;-68
2022/07/25 21:32:34;;;;;;;12.18;3.63;;;;;;;;;;10035737;28;20044;-68
2022/07/25 21:37:31;;;;;;;12.35;3.28;;;;;;;;;;10039484;28;20056;-68
2022/07/25 21:42:27;;;;;;;10.18;3.40;;;;;;;;;;10036593;28;20543;-67
2022/07/25 21:47:23;;;;;;;11.88;3.50;;;;;;;;;;10069631;28;20075;-68
2022/07/25 21:52:21;;;;;;;8.68;3.35;;;;;;;;;;10074089;28;20577;-68
2022/07/25 21:57:29;;;;;;;13.05;3.53;;;;;;;;;;10073827;28;20629;-68
2022/07/25 22:02:26;;;;;;;14.50;3.60;;;;;;;;;;10047144;28;20438;-68
2022/07/25 22:07:24;;;;;;;10.32;3.13;;;;;;;;;;10076142;28;20043;-68
2022/07/25 22:12:20;;;;;;;8.85;2.88;;;;;;;;;;10054864;28;20658;-68
2022/07/25 22:17:16;;;;;;;8.68;3.03;;;;;;;;;;10073261;28;20114;-68
2022/07/25 22:22:12;;;;;;;10.88;3.83;;;;;;;;;;10042677;28;20078;-68
2022/07/25 22:27:09;;;;;;;13.55;3.30;;;;;;;;;;10053744;28;20126;-68
2022/07/25 22:32:05;;;;;;;13.48;3.70;;;;;;;;;;10042013;28;20421;-68
2022/07/25 22:37:01;;;;;;;14.52;3.40;;;;;;;;;;10045275;28;20055;-68
2022/07/25 22:41:58;;;;;;;12.75;3.80;;;;;;;;;;10041369;28;20048;-68
2022/07/25 22:46:54;;;;;;;11.32;3.10;;;;;;;;;;10071460;28;20075;-68
2022/07/25 22:51:50;;;;;;;10.40;3.30;;;;;;;;;;10059484;28;20134;-68
2022/07/25 22:56:46;;;;;;;11.60;3.30;;;;;;;;;;10070253;28;20075;-68
2022/07/25 23:01:43;;;;;;;13.55;3.28;;;;;;;;;;10079728;28;20122;-68
2022/07/25 23:06:39;;;;;;;10.77;3.38;;;;;;;;;;10068286;28;20047;-68
2022/07/25 23:11:36;;;;;;;10.98;3.25;;;;;;;;;;10040461;28;20090;-68
2022/07/25 23:16:32;;;;;;;10.63;2.50;;;;;;;;;;10049314;28;20051;-68
2022/07/25 23:21:28;;;;;;;10.65;3.03;;;;;;;;;;10039651;28;20044;-69
2022/07/25 23:26:26;;;;;;;12.35;3.17;;;;;;;;;;10046854;28;20057;-68
2022/07/25 23:31:22;;;;;;;7.30;2.40;;;;;;;;;;10039378;28;20476;-68
2022/07/25 23:36:18;;;;;;;12.15;3.30;;;;;;;;;;10065206;28;20052;-68
2022/07/25 23:41:15;;;;;;;12.70;3.45;;;;;;;;;;10068609;28;20075;-68
2022/07/25 23:46:11;;;;;;;11.45;2.80;;;;;;;;;;10063602;28;20075;-68
2022/07/25 23:51:08;;;;;;;9.32;3.65;;;;;;;;;;10066995;28;20095;-68
2022/07/25 23:56:04;;;;;;;8.45;2.70;;;;;;;;;;10062382;28;20055;-68
